Flight Track Log - Related Links

Times and Time Zones

All times are in EDT time to prevent confusion due to time zone crossing. See the EJA922 flight status page for this flight to view local times or setup timezone preferences in your user account.

Time Position Orientation Groundspeed Altitude Reporting Facility
EDT Latitude Longitude Course Direction KTS km/h feet Rate Location/Type
Mon 14:56:08 45.7642 -111.1342 199° South 174 322 5.300  Level Salt Lake Center
Mon 14:57:10 45.7219 -111.1631 206° Southwest 200 370 8.000 2.468 Climbing Salt Lake Center
Mon 14:58:12 45.7056 -111.2450 254° West 217 402 10.400 2.177 Climbing Salt Lake Center
Mon 14:59:00 45.6646 -111.6695 195° South  Level FlightAware Approximate
Mon 14:59:14 45.6636 -111.3247 233° Southwest 274 507 12.500  Level Salt Lake Center
Mon 15:00:00 45.5436 -111.7026 196° South  Level FlightAware Approximate
Mon 15:00:16 45.5686 -111.3369 185° South 337 624 14.100  Level Salt Lake Center
Mon 15:01:00 45.4251 -111.7542 199° South  Level FlightAware Approximate
Mon 15:01:18 45.4633 -111.3497 185° South 369 684 16.000  Level Salt Lake Center
Mon 15:02:20 45.3350 -111.3647 185° South 383 710 18.200 2.032 Climbing Salt Lake Center
Mon 15:03:22 45.2264 -111.3786 185° South 390 723 20.200 1.920 Climbing Salt Lake Center
Mon 15:04:25 45.1183 -111.3917 185° South 389 721 22.200 2.016 Climbing Salt Lake Center
Mon 15:05:27 45.0014 -111.4061 185° South 394 729 24.400 1.935 Climbing Salt Lake Center
Mon 15:06:29 44.8950 -111.4192 185° South 398 737 26.200 1.694 Climbing Salt Lake Center
Mon 15:07:31 44.7675 -111.4353 185° South 409 758 27.900 1.403 Climbing Salt Lake Center
Mon 15:08:33 44.6550 -111.4494 185° South 420 777 29.100 1.113 Climbing Salt Lake Center
Mon 15:09:35 44.5172 -111.4678 185° South 470 871 30.200 1.065 Climbing Salt Lake Center
Mon 15:10:37 44.3803 -111.4819 184° South 459 850 31.300 968 Climbing Salt Lake Center
Mon 15:11:39 44.2542 -111.4975 185° South 472 874 32.200 1.016 Climbing Salt Lake Center
Mon 15:12:41 44.1033 -111.5158 185° South 485 898 33.400 1.016 Climbing Salt Lake Center
Mon 15:13:43 43.9697 -111.5317 185° South 498 922 34.300 968 Climbing Salt Lake Center
Mon 15:14:45 43.8144 -111.5494 185° South 501 929 35.400 968 Climbing Salt Lake Center
Mon 15:15:47 43.6819 -111.5658 185° South 500 925 36.300 774 Climbing Salt Lake Center
Mon 15:16:49 43.5494 -111.5803 185° South 499 924 37.000 339 Climbing Salt Lake Center
Mon 15:17:51 43.3911 -111.5978 185° South 509 943 37.000 194 Level Salt Lake Center
Mon 15:18:53 43.2542 -111.6142 185° South 514 953 37.400 726 Climbing Salt Lake Center
Mon 15:19:55 43.0986 -111.6322 185° South 504 933 38.500 968 Climbing Salt Lake Center
Mon 15:20:57 42.9661 -111.6489 185° South 500 925 39.400 968 Climbing Salt Lake Center
Mon 15:21:59 42.8139 -111.6664 185° South 493 912 40.500 774 Climbing Salt Lake Center
Mon 15:23:01 42.6808 -111.6792 184° South 486 900 41.000 242 Climbing Salt Lake Center
Mon 15:24:03 42.5442 -111.6956 185° South 493 912 41.000  Level Salt Lake Center
Mon 15:25:06 42.4053 -111.7111 185° South 500 925 41.000  Level Salt Lake Center
Mon 15:26:08 42.2381 -111.7283 184° South 502 930 41.000  Level Salt Lake Center
Mon 15:28:12 41.9608 -111.7603 185° South 499 924 41.000  Level Salt Lake Center
Mon 15:29:14 41.8217 -111.7742 184° South 502 930 41.000  Level Salt Lake Center
Mon 15:30:16 41.6822 -111.7906 185° South 501 929 41.000  Level Salt Lake Center
Mon 15:31:18 41.5431 -111.8058 185° South 503 932 41.000  Level Salt Lake Center
Mon 15:32:20 41.3772 -111.8239 185° South 500 925 41.000  Level Salt Lake Center
Mon 15:33:22 41.2386 -111.8392 185° South 500 925 41.000  Level Salt Lake Center
Mon 15:34:24 41.0919 -111.8547 185° South 503 932 41.000  Level Salt Lake Center
Mon 15:35:26 40.9722 -111.8681 185° South 502 930 41.000  Level Salt Lake Center
Mon 15:36:28 40.8069 -111.8842 184° South 510 945 41.000  Level Salt Lake Center
Mon 15:37:30 40.6664 -111.8981 184° South 511 946 41.000  Level Salt Lake Center
Mon 15:38:32 40.5297 -111.9139 185° South 496 919 41.000  Level Salt Lake Center
Mon 15:39:34 40.3925 -111.9289 185° South 497 921 41.000  Level Salt Lake Center
Mon 15:40:36 40.2542 -111.9469 186° South 509 943 41.000  Level Salt Lake Center
Mon 15:41:38 40.0878 -111.9697 186° South 499 924 41.000  Level Salt Lake Center
Mon 15:42:40 39.9506 -111.9900 186° South 499 924 41.000  Level Salt Lake Center
Mon 15:43:42 39.8142 -112.0083 186° South 494 914 41.000  Level Salt Lake Center
Mon 15:44:44 39.6750 -112.0292 187° South 499 924 41.000  Level Salt Lake Center
Mon 15:45:47 39.5367 -112.0492 186° South 501 929 41.000  Level Salt Lake Center
Mon 15:46:49 39.3975 -112.0678 186° South 498 922 41.000  Level Salt Lake Center
Mon 15:47:51 39.2319 -112.0928 187° South 498 922 41.000  Level Salt Lake Center
Mon 15:48:53 39.0872 -112.1136 186° South 502 930 41.000  Level Salt Lake Center
Mon 15:49:55 38.9478 -112.1317 186° South 503 932 41.000  Level Salt Lake Center
Mon 15:50:57 38.8072 -112.1533 187° South 506 937 41.000  Level Salt Lake Center
Mon 15:51:59 38.6681 -112.1836 190° South 507 938 41.000  Level Salt Lake Center
Mon 15:53:01 38.5306 -112.2219 192° South 505 935 41.000  Level Salt Lake Center
Mon 15:54:03 38.3939 -112.2611 193° South 502 930 41.000  Level Salt Lake Center
Mon 15:55:05 38.2319 -112.3053 192° South 496 919 41.000  Level Salt Lake Center
Mon 15:56:07 38.0969 -112.3403 192° South 493 912 41.000  Level Salt Lake Center
Mon 15:57:09 37.9636 -112.3758 192° South 490 908 41.000  Level Salt Lake Center
Mon 15:58:11 37.8300 -112.4103 192° South 488 904 41.000  Level Salt Lake Center
Mon 15:59:13 37.6950 -112.4392 190° South 487 901 41.000  Level Salt Lake Center
Mon 15:59:50 37.6119 -112.4403 181° South 476 882 41.000  Level Los Angeles Center
Mon 16:00:52 37.4719 -112.4342 178° South 490 908 41.000  Level Los Angeles Center
Mon 16:01:54 37.3364 -112.4164 174° South 486 900 41.000 -610 Level Los Angeles Center
Mon 16:03:59 37.0381 -112.3697 173° South 489 906 39.100 -834 Descending Los Angeles Center
Mon 16:05:01 36.9006 -112.3497 173° South 494 914 38.400 -774 Descending Los Angeles Center
Mon 16:06:03 36.7614 -112.3581 183° South 496 919 37.500 -1.016 Descending Los Angeles Center
Mon 16:07:05 36.6219 -112.3686 183° South 501 929 36.300 -1.694 Descending Los Angeles Center
Mon 16:08:07 36.4858 -112.3758 182° South 492 911 34.000 -1.597 Descending Los Angeles Center
Mon 16:09:09 36.3275 -112.3858 183° South 476 882 33.000 -480 Descending Los Angeles Center
Mon 16:10:12 36.1889 -112.4022 185° South 499 924 33.000  Level Los Angeles Center
Mon 16:11:14 36.0525 -112.4439 194° South 503 932 33.000  Level Los Angeles Center
Mon 16:12:16 35.9219 -112.4822 193° South 506 937 33.000 -484 Level Los Angeles Center
Mon 16:13:18 35.7861 -112.5244 194° South 506 937 32.000 -1.694 Descending Los Angeles Center
Mon 16:14:20 35.6450 -112.5667 194° South 522 967 29.500 -1.452 Descending Los Angeles Center
Mon 16:15:22 35.4833 -112.5225 167° South 499 924 29.000 -219 Descending Los Angeles Center
Mon 16:16:37 35.3325 -112.4442 157° South 489 906 29.000 -219 Level Los Angeles Center
Mon 16:17:39 35.2067 -112.3783 157° South 493 912 28.500 -774 Descending Los Angeles Center
Mon 16:18:41 35.0778 -112.3114 157° South 505 935 27.400 -1.165 Descending Los Angeles Center
Mon 16:19:58 34.8994 -112.2228 158° South 494 914 25.800 -1.295 Descending Albuquerque Center
Mon 16:21:00 34.7769 -112.1592 157° South 484 896 24.400 -2.032 Descending Albuquerque Center
Mon 16:22:02 34.6578 -112.0989 157° South 480 888 21.600 -2.878 Descending Albuquerque Center
Mon 16:23:03 34.5397 -112.0381 157° South 467 864 18.500 -3.073 Descending Albuquerque Center
Mon 16:24:05 34.4256 -111.9803 157° South 450 834 15.300 -2.952 Descending Albuquerque Center
Mon 16:25:07 34.3183 -111.9256 157° South 429 795 12.400 -2.129 Descending Albuquerque Center
Mon 16:26:09 34.1986 -111.9197 178° South 354 655 10.900 -878 Descending Albuquerque Center
Mon 16:27:10 34.1194 -111.9258 184° South 295 546 10.600 -927 Descending Albuquerque Center
Mon 16:28:12 34.0442 -111.9297 182° South 277 513 9.000 -1.645 Descending Albuquerque Center
Mon 16:29:14 33.9700 -111.9347 183° South 273 505 7.200 -1.016 Descending Albuquerque Center
Mon 16:30:16 33.8864 -111.9289 177° South 250 463 6.900 -390 Descending Albuquerque Center
Mon 16:31:17 33.8222 -111.9114 167° South 240 444 6.400 -927 Descending Albuquerque Center
Mon 16:32:19 33.7656 -111.8919 164° South 218 404 5.000 -1.258 Descending Albuquerque Center
Mon 16:33:21 33.7133 -111.8753 165° South 197 365 3.800 -1.065 Descending Albuquerque Center
Mon 16:34:23 33.6719 -111.8686 172° South 169 312 2.800 -968 Descending Albuquerque Center
Mon 16:35:25 33.6392 -111.8914 210° Southwest 153 283 1.800 -968 Descending Albuquerque Center
Mon 16:37:00 33.6229 -111.9105 180° South  Level Estimated

Login

Don't have an account? Register now (free) for customized features, flight alerts, and more!